createdAt,value
2022-09-28T00:01:24.876Z,12.75
2022-09-28T00:03:58.244Z,12.71
2022-09-28T00:06:27.832Z,12.74
2022-09-28T00:08:56.538Z,12.72
2022-09-28T00:11:42.106Z,12.77
2022-09-28T00:14:11.512Z,12.78
2022-09-28T00:16:42.389Z,12.84
2022-09-28T00:19:12.349Z,12.88
2022-09-28T00:21:43.420Z,12.90
2022-09-28T00:24:15.370Z,12.90
2022-09-28T00:26:46.753Z,12.95
2022-09-28T00:29:21.796Z,12.89
2022-09-28T00:31:52.809Z,12.96
2022-09-28T00:34:22.358Z,12.99
2022-09-28T00:36:50.398Z,12.99
2022-09-28T00:39:18.716Z,13.00
2022-09-28T00:41:48.683Z,13.00
2022-09-28T00:44:40.477Z,13.02
2022-09-28T00:47:22.744Z,13.00
2022-09-28T00:49:57.457Z,13.03
2022-09-28T00:52:30.683Z,13.01
2022-09-28T00:55:02.172Z,13.04
2022-09-28T00:57:31.212Z,13.00
2022-09-28T01:00:03.161Z,13.07
2022-09-28T01:02:31.351Z,13.07
2022-09-28T01:05:03.221Z,13.09
2022-09-28T01:07:33.473Z,13.12
2022-09-28T01:10:01.997Z,13.11
2022-09-28T01:12:30.056Z,13.12
2022-09-28T01:15:00.575Z,13.12
2022-09-28T01:17:35.510Z,13.12
2022-09-28T01:20:28.512Z,13.12
2022-09-28T01:23:28.534Z,13.14
2022-09-28T01:26:06.272Z,13.14
2022-09-28T01:28:36.163Z,13.10
2022-09-28T01:31:11.565Z,13.12
2022-09-28T01:33:43.186Z,13.17
2022-09-28T01:36:16.546Z,13.11
2022-09-28T01:38:49.774Z,13.14
2022-09-28T01:41:19.592Z,13.12
2022-09-28T01:43:54.847Z,13.10
2022-09-28T01:46:30.210Z,13.09
2022-09-28T01:49:00.112Z,13.03
2022-09-28T01:51:34.720Z,13.04
2022-09-28T01:54:12.020Z,13.02
2022-09-28T01:56:44.321Z,12.99
2022-09-28T01:59:16.910Z,12.97
2022-09-28T02:01:50.755Z,12.90
2022-09-28T02:04:24.209Z,12.92
2022-09-28T02:06:56.221Z,12.85
2022-09-28T02:09:33.568Z,12.86
2022-09-28T02:12:06.967Z,12.81
2022-09-28T02:14:41.771Z,12.83
2022-09-28T02:17:11.433Z,12.80
2022-09-28T02:19:41.516Z,12.77
2022-09-28T02:22:23.419Z,12.71
2022-09-28T02:24:57.805Z,12.73
2022-09-28T02:27:35.627Z,12.68
2022-09-28T02:30:07.109Z,12.62
2022-09-28T02:32:40.334Z,12.55
2022-09-28T02:35:10.020Z,12.52
2022-09-28T02:37:38.035Z,12.51
2022-09-28T02:40:14.191Z,12.42
2022-09-28T02:42:54.044Z,12.41
2022-09-28T02:45:39.064Z,12.32
2022-09-28T02:48:31.473Z,12.38
2022-09-28T02:51:22.861Z,12.36
2022-09-28T02:54:18.548Z,12.33
2022-09-28T02:57:10.232Z,12.32
2022-09-28T02:59:48.974Z,12.31
2022-09-28T03:02:26.750Z,12.23
2022-09-28T03:05:07.726Z,12.21
2022-09-28T03:07:41.151Z,12.17
2022-09-28T03:10:17.701Z,12.22
2022-09-28T03:12:48.484Z,12.17
2022-09-28T03:15:24.500Z,12.13
2022-09-28T03:17:54.501Z,12.09
2022-09-28T03:20:22.636Z,12.13
2022-09-28T03:23:06.449Z,12.13
2022-09-28T03:25:40.197Z,12.12
2022-09-28T03:28:08.150Z,12.14
2022-09-28T03:30:36.431Z,12.14
2022-09-28T03:33:20.480Z,12.12
2022-09-28T03:35:51.381Z,12.13
2022-09-28T03:38:19.642Z,12.26
2022-09-28T03:40:55.221Z,12.25
2022-09-28T03:43:23.601Z,12.28
2022-09-28T03:45:57.535Z,12.30
2022-09-28T03:48:32.362Z,12.34
2022-09-28T03:51:02.383Z,12.30
2022-09-28T03:53:31.523Z,12.34
2022-09-28T03:56:04.616Z,12.34
2022-09-28T03:58:33.199Z,12.33
2022-09-28T04:01:05.338Z,12.32
2022-09-28T04:03:38.113Z,12.32
2022-09-28T04:06:07.538Z,12.34
2022-09-28T04:08:37.127Z,12.35
2022-09-28T04:11:05.195Z,12.38
2022-09-28T04:13:33.771Z,12.39
2022-09-28T04:16:08.097Z,12.40
2022-09-28T04:18:38.825Z,12.42
2022-09-28T04:21:14.083Z,12.44
2022-09-28T04:23:42.703Z,12.42
2022-09-28T04:26:18.811Z,12.43
2022-09-28T04:29:15.975Z,12.40
2022-09-28T04:31:46.233Z,12.37
2022-09-28T04:34:24.919Z,12.36
2022-09-28T04:36:53.093Z,12.32
2022-09-28T04:39:21.628Z,12.28
2022-09-28T04:41:49.999Z,12.26
2022-09-28T04:44:18.647Z,12.26
2022-09-28T04:46:46.873Z,12.26
2022-09-28T04:49:27.761Z,12.20
2022-09-28T04:51:55.749Z,12.24
2022-09-28T04:54:23.746Z,12.22
2022-09-28T04:56:52.963Z,12.20
2022-09-28T04:59:21.098Z,12.17
2022-09-28T05:01:49.491Z,12.16
2022-09-28T05:04:24.954Z,12.13
2022-09-28T05:06:56.154Z,12.11
2022-09-28T05:09:24.364Z,12.12
2022-09-28T05:11:53.199Z,12.09
2022-09-28T05:14:24.607Z,12.09
2022-09-28T05:16:54.077Z,12.12
2022-09-28T05:19:22.185Z,12.12
2022-09-28T05:21:50.343Z,12.10
2022-09-28T05:24:19.858Z,12.11
2022-09-28T05:26:47.883Z,12.11
2022-09-28T05:29:16.027Z,12.11
2022-09-28T05:31:44.068Z,12.10
2022-09-28T05:34:12.136Z,12.14
2022-09-28T05:36:46.714Z,12.11
2022-09-28T05:39:14.954Z,12.13
2022-09-28T05:41:44.556Z,12.17
2022-09-28T05:44:14.494Z,12.20
2022-09-28T05:46:42.552Z,12.22
2022-09-28T05:49:10.663Z,12.24
2022-09-28T05:51:39.316Z,12.28
2022-09-28T05:54:07.467Z,12.31
2022-09-28T05:56:35.908Z,12.36
2022-09-28T05:59:06.560Z,12.44
2022-09-28T06:01:43.666Z,12.48
2022-09-28T06:04:12.031Z,12.53
2022-09-28T06:06:40.963Z,12.55
2022-09-28T06:09:09.169Z,12.62
2022-09-28T06:11:45.308Z,12.70
2022-09-28T06:14:14.951Z,12.80
2022-09-28T06:16:44.133Z,12.87
2022-09-28T06:19:14.502Z,12.93
2022-09-28T06:21:42.503Z,13.01
2022-09-28T06:24:12.762Z,13.11
2022-09-28T06:26:41.458Z,13.17
2022-09-28T06:29:09.738Z,13.20
2022-09-28T06:31:41.941Z,13.24
2022-09-28T06:34:10.381Z,13.31
2022-09-28T06:36:38.489Z,13.28
2022-09-28T06:39:08.121Z,13.29
2022-09-28T06:41:42.314Z,13.33
2022-09-28T06:44:12.262Z,13.39
2022-09-28T06:46:41.669Z,13.41
2022-09-28T06:49:10.216Z,13.46
2022-09-28T06:51:38.300Z,13.53
2022-09-28T06:54:06.477Z,13.59
2022-09-28T06:56:34.660Z,13.63
2022-09-28T06:59:04.442Z,13.62
2022-09-28T07:01:32.622Z,13.69
2022-09-28T07:04:08.251Z,13.67
2022-09-28T07:06:47.811Z,13.72
2022-09-28T07:09:31.787Z,13.81
2022-09-28T07:12:01.294Z,13.90
2022-09-28T07:14:46.920Z,13.97
2022-09-28T07:17:16.098Z,14.04
2022-09-28T07:19:46.623Z,14.09
2022-09-28T07:22:18.524Z,14.16
2022-09-28T07:24:47.313Z,14.20
2022-09-28T07:27:15.311Z,14.31
2022-09-28T07:29:43.286Z,14.35
2022-09-28T07:32:11.470Z,14.37
2022-09-28T07:34:58.975Z,14.37
2022-09-28T07:37:29.118Z,14.36
2022-09-28T07:40:14.834Z,14.37
2022-09-28T07:42:45.853Z,14.36
2022-09-28T07:45:13.967Z,14.39
2022-09-28T07:47:42.096Z,14.47
2022-09-28T07:50:11.252Z,14.51
2022-09-28T07:52:41.778Z,14.54
2022-09-28T07:55:10.620Z,14.53
2022-09-28T07:57:39.774Z,14.62
2022-09-28T08:00:09.130Z,14.68
2022-09-28T08:02:40.060Z,14.72
2022-09-28T08:05:10.178Z,14.79
2022-09-28T08:07:40.923Z,14.81
2022-09-28T08:10:09.847Z,14.86
2022-09-28T08:12:41.079Z,14.89
2022-09-28T08:15:11.784Z,14.94
2022-09-28T08:17:40.112Z,14.98
2022-09-28T08:20:29.644Z,14.99
2022-09-28T08:23:04.670Z,15.01
2022-09-28T08:25:32.828Z,15.02
2022-09-28T08:28:01.304Z,15.04
2022-09-28T08:30:29.439Z,15.03
2022-09-28T08:33:07.409Z,15.04
2022-09-28T08:35:35.523Z,15.11
2022-09-28T08:38:07.689Z,15.10
2022-09-28T08:40:44.894Z,15.09
2022-09-28T08:43:31.293Z,15.16
2022-09-28T08:46:02.641Z,15.19
2022-09-28T08:49:12.960Z,15.20
2022-09-28T08:51:46.178Z,15.23
2022-09-28T08:54:27.149Z,15.20
2022-09-28T08:57:00.993Z,15.18
2022-09-28T08:59:45.206Z,15.23
2022-09-28T09:02:22.491Z,15.27
2022-09-28T09:04:54.710Z,15.32
2022-09-28T09:07:52.875Z,15.29
2022-09-28T09:10:39.809Z,15.26
2022-09-28T09:13:20.593Z,15.32
2022-09-28T09:15:57.277Z,15.38
2022-09-28T09:18:37.275Z,15.50
2022-09-28T09:21:13.689Z,15.60
2022-09-28T09:24:07.742Z,15.66
2022-09-28T09:26:39.703Z,15.76
2022-09-28T09:29:20.610Z,15.90
2022-09-28T09:32:04.500Z,16.06
2022-09-28T09:34:53.382Z,16.11
2022-09-28T09:37:54.107Z,16.23
2022-09-28T09:40:46.767Z,16.20
2022-09-28T09:43:53.644Z,16.26
2022-09-28T09:46:43.072Z,16.38
2022-09-28T09:49:17.591Z,16.42
2022-09-28T09:51:50.215Z,16.32
2022-09-28T09:54:25.435Z,16.19
2022-09-28T09:56:58.653Z,16.13
2022-09-28T09:59:34.970Z,16.05
2022-09-28T10:02:05.430Z,16.04
2022-09-28T10:04:41.860Z,16.01
2022-09-28T10:07:25.398Z,16.01
2022-09-28T10:09:58.407Z,16.01
2022-09-28T10:12:27.127Z,15.95
2022-09-28T10:14:56.728Z,15.81
2022-09-28T10:17:27.500Z,15.68
2022-09-28T10:20:00.018Z,15.66
2022-09-28T10:22:30.116Z,15.64
2022-09-28T10:24:59.366Z,15.50
2022-09-28T10:27:31.686Z,15.45
2022-09-28T10:30:03.956Z,15.39
2022-09-28T10:32:39.503Z,15.33
2022-09-28T10:35:25.357Z,15.33
2022-09-28T10:37:58.876Z,15.38
2022-09-28T10:40:34.808Z,15.34
2022-09-28T10:43:04.773Z,15.39
2022-09-28T10:45:37.915Z,15.39
2022-09-28T10:48:23.491Z,15.37
2022-09-28T10:51:04.110Z,15.29
2022-09-28T10:53:32.246Z,15.26
2022-09-28T10:56:03.445Z,15.18
2022-09-28T10:58:39.452Z,15.15
2022-09-28T11:01:12.018Z,15.21
2022-09-28T11:03:51.611Z,15.25
2022-09-28T11:06:27.227Z,15.28
2022-09-28T11:08:58.765Z,15.35
2022-09-28T11:11:27.228Z,15.40
2022-09-28T11:13:57.815Z,15.51
2022-09-28T11:16:31.517Z,15.66
2022-09-28T11:19:04.542Z,15.76
2022-09-28T11:21:42.881Z,15.90
2022-09-28T11:24:21.476Z,15.95
2022-09-28T11:26:53.025Z,15.97
2022-09-28T11:29:27.945Z,15.97
2022-09-28T11:32:03.409Z,16.03
2022-09-28T11:34:57.528Z,16.01
2022-09-28T11:37:38.511Z,16.03
2022-09-28T11:40:20.746Z,16.06
2022-09-28T11:42:58.470Z,16.07
2022-09-28T11:45:38.979Z,16.00
2022-09-28T11:48:12.312Z,15.85
2022-09-28T11:50:48.222Z,15.76
2022-09-28T11:53:29.136Z,15.74
2022-09-28T11:56:08.735Z,15.78
2022-09-28T11:58:42.024Z,15.80
2022-09-28T12:01:22.083Z,15.76
2022-09-28T12:03:59.570Z,15.85
2022-09-28T12:06:37.969Z,15.89
2022-09-28T12:09:10.637Z,15.91
2022-09-28T12:11:43.567Z,16.02
2022-09-28T12:14:19.845Z,16.14
2022-09-28T12:17:05.927Z,16.22
2022-09-28T12:19:44.509Z,16.22
2022-09-28T12:22:18.870Z,16.28
2022-09-28T12:24:50.362Z,16.27
2022-09-28T12:27:24.485Z,16.37
2022-09-28T12:29:58.435Z,16.46
2022-09-28T12:32:37.565Z,16.46
2022-09-28T12:35:13.380Z,16.38
2022-09-28T12:38:01.743Z,16.30
2022-09-28T12:40:43.317Z,16.16
2022-09-28T12:43:29.094Z,16.07
2022-09-28T12:46:17.528Z,15.95
2022-09-28T12:52:18.565Z,16.04
2022-09-28T12:55:20.577Z,16.14
2022-09-28T12:57:59.868Z,16.23
2022-09-28T13:00:34.918Z,16.16
2022-09-28T13:03:33.508Z,16.08
2022-09-28T13:06:23.081Z,16.00
2022-09-28T13:09:09.425Z,15.98
2022-09-28T13:11:45.147Z,15.92
2022-09-28T13:14:33.864Z,15.92
2022-09-28T13:17:07.341Z,15.86
2022-09-28T13:19:46.917Z,15.83
2022-09-28T13:22:31.021Z,15.86
2022-09-28T13:25:05.868Z,15.94
2022-09-28T13:27:38.166Z,16.02
2022-09-28T13:30:08.632Z,16.06
2022-09-28T13:32:42.064Z,16.09
2022-09-28T13:35:16.128Z,16.12
2022-09-28T13:37:44.235Z,16.11
2022-09-28T13:40:16.225Z,16.14
2022-09-28T13:43:28.720Z,16.18
2022-09-28T13:46:05.912Z,16.21
2022-09-28T13:48:48.727Z,16.16
2022-09-28T13:51:51.828Z,16.01
2022-09-28T13:54:41.906Z,15.87
2022-09-28T13:57:21.497Z,15.66
2022-09-28T14:00:09.247Z,15.55
2022-09-28T14:02:41.954Z,15.48
2022-09-28T14:05:48.589Z,15.46
2022-09-28T14:08:37.363Z,15.40
2022-09-28T14:11:42.100Z,15.33
2022-09-28T14:14:47.797Z,15.31
2022-09-28T14:17:50.554Z,15.25
2022-09-28T14:20:22.689Z,15.18
2022-09-28T14:23:18.369Z,15.21
2022-09-28T14:26:00.291Z,15.12
2022-09-28T14:28:43.543Z,15.04
2022-09-28T14:31:29.560Z,14.97
2022-09-28T14:34:02.693Z,14.86
2022-09-28T14:36:55.601Z,14.86
2022-09-28T14:39:46.795Z,14.74
2022-09-28T14:42:18.316Z,14.71
2022-09-28T14:45:22.212Z,14.61
2022-09-28T14:50:47.343Z,14.54
2022-09-28T14:53:21.108Z,14.49
2022-09-28T14:55:55.525Z,14.55
2022-09-28T14:58:29.016Z,14.56
2022-09-28T15:01:03.949Z,14.48
2022-09-28T15:03:34.490Z,14.44
2022-09-28T15:06:04.130Z,14.33
2022-09-28T15:08:40.257Z,14.35
2022-09-28T15:11:14.986Z,14.33
2022-09-28T15:13:44.177Z,14.17
2022-09-28T15:16:15.165Z,14.16
2022-09-28T15:19:15.849Z,14.07
2022-09-28T15:21:47.748Z,14.03
2022-09-28T15:24:32.703Z,13.91
2022-09-28T15:27:00.951Z,13.95
2022-09-28T15:29:31.698Z,13.87
2022-09-28T15:32:02.258Z,13.83
2022-09-28T15:34:49.821Z,13.78
2022-09-28T15:37:23.026Z,13.72
2022-09-28T15:39:52.518Z,13.65
2022-09-28T15:42:21.315Z,13.55
2022-09-28T15:45:07.138Z,13.51
2022-09-28T15:47:36.390Z,13.51
2022-09-28T15:50:09.530Z,13.46
2022-09-28T15:52:44.712Z,13.40
2022-09-28T15:55:23.792Z,13.36
2022-09-28T15:58:07.844Z,13.31
2022-09-28T16:00:36.393Z,13.29
2022-09-28T16:03:21.663Z,13.18
2022-09-28T16:05:51.785Z,13.17
2022-09-28T16:08:24.850Z,13.10
2022-09-28T16:11:04.299Z,13.05
2022-09-28T16:13:34.334Z,13.01
2022-09-28T16:16:03.518Z,12.95
2022-09-28T16:18:32.531Z,12.86
2022-09-28T16:21:32.784Z,12.85
2022-09-28T16:24:03.755Z,12.79
2022-09-28T16:26:34.571Z,12.71
2022-09-28T16:29:10.088Z,12.68
2022-09-28T16:31:41.466Z,12.58
2022-09-28T16:34:19.164Z,12.59
2022-09-28T16:36:54.845Z,12.53
2022-09-28T16:39:27.214Z,12.48
2022-09-28T16:42:02.060Z,12.43
2022-09-28T16:44:31.900Z,12.39
2022-09-28T16:47:01.086Z,12.34
2022-09-28T16:49:32.323Z,12.25
2022-09-28T16:52:00.435Z,12.26
2022-09-28T16:55:07.419Z,12.23
2022-09-28T16:57:50.114Z,12.16
2022-09-28T17:00:20.954Z,12.12
2022-09-28T17:02:49.188Z,12.13
2022-09-28T17:05:19.449Z,12.08
2022-09-28T17:07:50.587Z,12.05
2022-09-28T17:10:25.360Z,12.05
2022-09-28T17:12:53.433Z,12.04
2022-09-28T17:15:21.460Z,12.00
2022-09-28T17:17:50.552Z,11.99
2022-09-28T17:20:23.501Z,11.97
2022-09-28T17:22:52.031Z,11.96
2022-09-28T17:25:22.403Z,11.98
2022-09-28T17:27:52.125Z,11.98
2022-09-28T17:30:25.111Z,11.98
2022-09-28T17:32:53.841Z,11.97
2022-09-28T17:35:25.037Z,11.94
2022-09-28T17:37:54.430Z,11.92
2022-09-28T17:40:26.033Z,11.94
2022-09-28T17:42:55.210Z,11.86
2022-09-28T17:45:25.940Z,11.91
2022-09-28T17:47:54.260Z,11.83
2022-09-28T17:50:24.535Z,11.85
2022-09-28T17:52:53.737Z,11.81
2022-09-28T17:55:28.702Z,11.85
2022-09-28T17:57:56.994Z,11.86
2022-09-28T18:00:27.631Z,11.84
2022-09-28T18:02:55.964Z,11.81
2022-09-28T18:05:25.138Z,11.86
2022-09-28T18:07:53.695Z,11.86
2022-09-28T18:10:24.734Z,11.87
2022-09-28T18:12:52.901Z,11.87
2022-09-28T18:15:20.973Z,11.84
2022-09-28T18:17:49.874Z,11.84
2022-09-28T18:20:18.203Z,11.82
2022-09-28T18:22:46.410Z,11.81
2022-09-28T18:25:14.868Z,11.82
2022-09-28T18:27:44.372Z,11.81
2022-09-28T18:30:13.096Z,11.81
2022-09-28T18:32:41.382Z,11.80
2022-09-28T18:35:13.857Z,11.79
2022-09-28T18:37:42.031Z,11.78
2022-09-28T18:40:12.818Z,11.70
2022-09-28T18:42:41.432Z,11.60
2022-09-28T18:45:12.247Z,11.58
2022-09-28T18:47:40.667Z,11.51
2022-09-28T18:50:11.683Z,11.46
2022-09-28T18:52:41.319Z,11.38
2022-09-28T18:55:10.893Z,11.33
2022-09-28T18:57:42.695Z,11.28
2022-09-28T19:00:14.760Z,11.23
2022-09-28T19:02:43.878Z,11.21
2022-09-28T19:05:12.338Z,11.17
2022-09-28T19:07:40.653Z,11.13
2022-09-28T19:10:09.971Z,11.19
2022-09-28T19:12:41.330Z,11.18
2022-09-28T19:15:11.232Z,11.18
2022-09-28T19:17:39.613Z,11.16
2022-09-28T19:20:08.527Z,11.11
2022-09-28T19:22:38.122Z,11.15
2022-09-28T19:25:06.851Z,11.15
2022-09-28T19:27:44.152Z,11.12
2022-09-28T19:30:14.691Z,11.13
2022-09-28T19:32:43.151Z,11.12
2022-09-28T19:35:11.373Z,11.13
2022-09-28T19:37:39.643Z,11.10
2022-09-28T19:40:08.901Z,11.10
2022-09-28T19:42:37.500Z,11.02
2022-09-28T19:45:06.789Z,11.08
2022-09-28T19:47:37.517Z,11.06
2022-09-28T19:50:07.110Z,11.02
2022-09-28T19:52:35.508Z,10.99
2022-09-28T19:55:03.650Z,10.99
2022-09-28T19:57:33.313Z,10.97
2022-09-28T20:00:03.595Z,10.90
2022-09-28T20:02:32.021Z,10.88
2022-09-28T20:05:01.561Z,10.83
2022-09-28T20:07:32.931Z,10.78
2022-09-28T20:10:01.142Z,10.73
2022-09-28T20:12:29.183Z,10.68
2022-09-28T20:14:59.992Z,10.67
2022-09-28T20:17:27.973Z,10.63
2022-09-28T20:19:56.771Z,10.61
2022-09-28T20:22:26.176Z,10.59
2022-09-28T20:24:54.123Z,10.61
2022-09-28T20:27:26.339Z,10.64
2022-09-28T20:29:54.717Z,10.65
2022-09-28T20:32:22.687Z,10.67
2022-09-28T20:34:50.818Z,10.70
2022-09-28T20:37:19.363Z,10.74
2022-09-28T20:39:48.909Z,10.76
2022-09-28T20:42:17.287Z,10.78
2022-09-28T20:44:45.311Z,10.79
2022-09-28T20:47:26.493Z,10.81
2022-09-28T20:49:55.660Z,10.80
2022-09-28T20:52:23.743Z,10.80
2022-09-28T20:54:53.168Z,10.77
2022-09-28T20:57:21.395Z,10.71
2022-09-28T20:59:53.791Z,10.67
2022-09-28T21:02:23.500Z,10.63
2022-09-28T21:04:51.685Z,10.58
2022-09-28T21:07:19.714Z,10.54
2022-09-28T21:09:47.771Z,10.50
2022-09-28T21:12:17.231Z,10.47
2022-09-28T21:14:45.687Z,10.44
2022-09-28T21:17:13.797Z,10.45
2022-09-28T21:19:41.835Z,10.45
2022-09-28T21:22:09.932Z,10.42
2022-09-28T21:24:39.464Z,10.39
2022-09-28T21:27:07.673Z,10.37
2022-09-28T21:29:37.149Z,10.32
2022-09-28T21:32:06.927Z,10.28
2022-09-28T21:34:35.964Z,10.29
2022-09-28T21:37:04.141Z,10.27
2022-09-28T21:39:32.241Z,10.25
2022-09-28T21:42:01.553Z,10.26
2022-09-28T21:44:29.824Z,10.22
2022-09-28T21:47:00.241Z,10.19
2022-09-28T21:49:29.507Z,10.17
2022-09-28T21:51:57.475Z,10.10
2022-09-28T21:54:25.739Z,10.06
2022-09-28T21:56:53.761Z,10.05
2022-09-28T21:59:21.759Z,10.00
2022-09-28T22:01:49.879Z,9.99
2022-09-28T22:04:20.806Z,9.96
2022-09-28T22:06:48.902Z,9.94
2022-09-28T22:09:18.386Z,9.97
2022-09-28T22:11:49.072Z,9.95
2022-09-28T22:14:17.736Z,9.99
2022-09-28T22:16:45.783Z,9.93
2022-09-28T22:19:13.871Z,9.91
2022-09-28T22:21:43.329Z,9.89
2022-09-28T22:24:12.249Z,9.87
2022-09-28T22:26:40.553Z,9.87
2022-09-28T22:29:09.827Z,9.85
2022-09-28T22:31:39.728Z,9.79
2022-09-28T22:34:08.963Z,9.86
2022-09-28T22:36:37.024Z,9.77
2022-09-28T22:39:08.519Z,9.82
2022-09-28T22:41:36.542Z,9.80
2022-09-28T22:44:04.654Z,9.77
2022-09-28T22:46:33.100Z,9.76
2022-09-28T22:49:02.561Z,9.74
2022-09-28T22:51:31.871Z,9.69
2022-09-28T22:54:00.222Z,9.69
2022-09-28T22:56:32.350Z,9.65
2022-09-28T22:59:00.884Z,9.62
2022-09-28T23:01:30.607Z,9.60
2022-09-28T23:03:59.561Z,9.60
2022-09-28T23:06:30.423Z,9.59
2022-09-28T23:08:58.511Z,9.61
2022-09-28T23:11:26.486Z,9.62
2022-09-28T23:13:57.459Z,9.63
2022-09-28T23:16:26.897Z,9.63
2022-09-28T23:18:56.279Z,9.64
2022-09-28T23:21:26.082Z,9.65
2022-09-28T23:23:55.761Z,9.64
2022-09-28T23:26:25.786Z,9.67
2022-09-28T23:28:55.837Z,9.68
2022-09-28T23:31:26.058Z,9.65
2022-09-28T23:33:58.350Z,9.63
2022-09-28T23:36:26.702Z,9.63
2022-09-28T23:38:54.953Z,9.60
2022-09-28T23:41:23.179Z,9.59
2022-09-28T23:43:51.599Z,9.56
2022-09-28T23:46:21.434Z,9.53
2022-09-28T23:48:49.529Z,9.50
2022-09-28T23:51:18.477Z,9.48
2022-09-28T23:53:46.850Z,9.44
2022-09-28T23:56:15.538Z,9.41
2022-09-28T23:58:43.937Z,9.38
